Time;durP1;ratioP1;P1;durP2;ratioP2;P2;SDS_P1;SDS_P2;PMS_P1;PMS_P2;Temp;Humidity;BMP_temperature;BMP_pressure;BME280_temperature;BME280_humidity;BME280_pressure;Samples;Min_cycle;Max_cycle;Signal;HPM_P1;HPM_P2
2023/12/29 00:02:08;;;;;;;3.20;2.85;;;;;;;2.25;88.03;99936.81;5117170;28;20367;-66
2023/12/29 00:04:38;;;;;;;3.43;3.13;;;;;;;2.29;87.96;99940.28;5117378;28;20139;-66
2023/12/29 00:07:07;;;;;;;1.70;1.60;;;;;;;2.28;87.32;99949.50;5116721;28;20039;-66
2023/12/29 00:09:40;;;;;;;2.33;2.10;;;;;;;2.32;87.82;99941.28;5117179;28;20067;-66
2023/12/29 00:12:10;;;;;;;8.93;7.30;;;;;;;2.40;88.40;99960.00;5117613;28;20288;-66
2023/12/29 00:14:40;;;;;;;4.25;3.83;;;;;;;2.46;87.87;99965.28;5117389;28;20043;-66
2023/12/29 00:17:09;;;;;;;4.13;3.40;;;;;;;2.52;87.87;99962.13;5117424;28;20101;-66
2023/12/29 00:19:40;;;;;;;4.23;3.33;;;;;;;2.54;88.01;99965.56;5116041;28;20055;-66
2023/12/29 00:22:08;;;;;;;4.18;3.28;;;;;;;2.56;88.08;99962.31;5116149;28;20328;-66
2023/12/29 00:24:39;;;;;;;6.43;4.05;;;;;;;2.59;87.72;99957.34;5116117;28;20040;-66
2023/12/29 00:27:08;;;;;;;6.22;4.25;;;;;;;2.61;88.11;99955.75;5117194;28;20556;-66
2023/12/29 00:29:37;;;;;;;2.63;2.43;;;;;;;2.62;87.81;99947.38;5116842;28;20093;-66
2023/12/29 00:32:06;;;;;;;2.60;2.40;;;;;;;2.67;88.50;99945.88;5117159;28;20508;-66
2023/12/29 00:34:37;;;;;;;3.58;3.08;;;;;;;2.65;88.29;99946.63;5117106;28;20047;-67
2023/12/29 00:37:09;;;;;;;6.88;3.33;;;;;;;2.56;88.10;99942.16;5117007;28;20139;-67
2023/12/29 00:39:39;;;;;;;4.00;3.45;;;;;;;2.56;88.55;99942.16;5116681;28;20074;-66
2023/12/29 00:42:09;;;;;;;6.25;5.07;;;;;;;2.51;87.76;99951.19;5117005;28;20040;-67
2023/12/29 00:44:37;;;;;;;10.07;4.73;;;;;;;2.53;87.86;99952.09;5116481;28;20039;-66
2023/12/29 00:47:06;;;;;;;2.30;1.97;;;;;;;2.49;88.21;99947.78;5116445;28;20039;-65
2023/12/29 00:49:39;;;;;;;7.60;4.68;;;;;;;2.43;87.71;99937.47;5115545;28;20124;-67
2023/12/29 00:52:09;;;;;;;1.98;1.77;;;;;;;2.45;88.57;99923.25;5116615;28;20520;-65
2023/12/29 00:54:38;;;;;;;3.10;2.70;;;;;;;2.32;88.66;99926.16;5115148;28;20518;-67
2023/12/29 00:57:07;;;;;;;2.60;2.30;;;;;;;2.33;88.04;99929.50;5116249;28;20051;-65
2023/12/29 00:59:39;;;;;;;6.38;3.92;;;;;;;2.39;88.49;99923.06;5116568;28;20059;-67
2023/12/29 01:02:08;;;;;;;6.47;3.53;;;;;;;2.40;88.19;99913.84;5116307;28;20113;-66
2023/12/29 01:04:39;;;;;;;1.63;1.53;;;;;;;2.39;88.72;99918.03;5114900;28;20043;-66
2023/12/29 01:07:10;;;;;;;5.10;2.00;;;;;;;2.39;89.07;99923.06;5116710;28;20320;-66
2023/12/29 01:09:39;;;;;;;9.80;5.15;;;;;;;2.36;88.49;99925.47;5115429;28;20043;-65
2023/12/29 01:12:09;;;;;;;4.10;3.72;;;;;;;2.38;88.24;99928.88;5115081;28;20138;-67
2023/12/29 01:14:37;;;;;;;2.78;2.42;;;;;;;2.39;89.04;99922.19;5115010;28;20039;-67
2023/12/29 01:17:07;;;;;;;4.95;4.47;;;;;;;2.44;88.44;99926.59;5116227;28;20410;-68
2023/12/29 01:19:36;;;;;;;6.63;3.72;;;;;;;2.39;88.56;99922.19;5116109;28;20170;-67
2023/12/29 01:22:05;;;;;;;4.17;3.50;;;;;;;2.40;88.58;99922.25;5115775;28;20040;-67
2023/12/29 01:24:35;;;;;;;2.97;2.75;;;;;;;2.39;89.27;99917.16;5116051;28;20547;-65
2023/12/29 01:27:13;;;;;;;3.75;2.50;;;;;;;2.37;89.05;99913.75;5114772;28;20138;-66
2023/12/29 01:29:42;;;;;;;5.22;3.85;;;;;;;2.45;88.81;99917.34;5097680;28;20036;-65
2023/12/29 01:32:11;;;;;;;5.07;1.85;;;;;;;2.48;89.17;99920.84;5115898;28;20048;-67
2023/12/29 01:34:40;;;;;;;4.33;3.97;;;;;;;2.48;89.16;99920.00;5115304;28;20513;-67
2023/12/29 01:37:09;;;;;;;4.10;3.72;;;;;;;2.48;88.26;99912.44;5115502;28;20494;-67
2023/12/29 01:39:40;;;;;;;21.45;4.15;;;;;;;2.54;89.37;99908.47;5116362;28;20423;-65
2023/12/29 01:42:11;;;;;;;3.90;3.10;;;;;;;2.59;88.56;99917.03;5114265;28;20058;-65
2023/12/29 01:44:40;;;;;;;6.75;3.60;;;;;;;2.58;88.64;99915.34;5115404;28;20493;-66
2023/12/29 01:47:16;;;;;;;5.77;3.27;;;;;;;2.62;89.08;99912.13;5114349;28;20042;-67
2023/12/29 01:49:46;;;;;;;3.60;2.70;;;;;;;2.56;88.51;99919.47;5114454;28;20055;-65
2023/12/29 01:52:17;;;;;;;2.30;2.13;;;;;;;2.54;88.73;99908.47;5113944;28;20505;-67
2023/12/29 01:54:52;;;;;;;3.13;2.55;;;;;;;2.50;88.60;99901.63;5115310;28;20047;-65
2023/12/29 01:57:23;;;;;;;2.03;1.90;;;;;;;2.42;88.58;99900.50;5115063;28;20051;-66
2023/12/29 01:59:52;;;;;;;3.33;2.65;;;;;;;2.52;88.89;99910.06;5115404;28;20044;-68
2023/12/29 02:02:21;;;;;;;4.63;2.22;;;;;;;2.49;89.39;99920.06;5113815;28;20528;-65
2023/12/29 02:04:50;;;;;;;4.73;4.33;;;;;;;2.49;89.27;99907.47;5114126;28;20032;-67
2023/12/29 02:07:21;;;;;;;2.80;2.60;;;;;;;2.50;88.95;99906.66;5113611;28;20032;-66
2023/12/29 02:09:51;;;;;;;5.93;4.53;;;;;;;2.52;89.50;99910.06;5114540;28;20131;-65
2023/12/29 02:12:21;;;;;;;5.88;4.15;;;;;;;2.53;89.64;99914.31;5096826;28;20047;-65
2023/12/29 02:14:50;;;;;;;;;;;;;;;2.58;89.01;99912.81;5114150;28;20515;-66
2023/12/29 02:17:27;;;;;;;5.95;3.47;;;;;;;2.52;89.65;99910.06;5113501;28;19926;-65
2023/12/29 02:19:56;;;;;;;9.48;3.45;;;;;;;2.49;89.81;99910.00;5114156;28;20039;-67
2023/12/29 02:22:25;;;;;;;5.13;4.63;;;;;;;2.46;89.94;99909.88;5114570;28;20040;-66
2023/12/29 02:24:56;;;;;;;2.72;2.53;;;;;;;2.50;90.10;99900.75;5113428;28;20051;-65
2023/12/29 02:27:36;;;;;;;4.82;4.43;;;;;;;2.56;89.74;99901.84;5114106;28;20054;-65
2023/12/29 02:30:12;;;;;;;2.00;1.90;;;;;;;2.62;89.59;99909.59;5113566;28;20145;-66
2023/12/29 02:32:43;;;;;;;3.92;2.45;;;;;;;2.61;89.63;99910.41;5114695;28;20031;-66
2023/12/29 02:35:16;;;;;;;11.68;3.00;;;;;;;2.57;90.23;99908.56;5114825;28;20060;-65
2023/12/29 02:37:45;;;;;;;2.80;2.05;;;;;;;2.56;90.22;99906.88;5113426;28;20460;-65
2023/12/29 02:40:16;;;;;;;3.40;3.05;;;;;;;2.56;89.61;99906.00;5114520;28;20039;-64
2023/12/29 02:42:47;;;;;;;5.03;3.28;;;;;;;2.55;89.68;99902.63;5113392;28;20142;-64
2023/12/29 02:45:17;;;;;;;4.63;3.90;;;;;;;2.51;89.97;99903.34;5113389;28;20052;-64
2023/12/29 02:47:46;;;;;;;2.97;2.72;;;;;;;2.54;89.67;99903.44;5112545;28;20159;-66
2023/12/29 02:50:16;;;;;;;5.65;3.55;;;;;;;2.61;90.40;99889.41;5114809;28;20040;-65
2023/12/29 02:52:45;;;;;;;3.33;2.65;;;;;;;2.70;90.20;99898.13;5114228;28;20077;-66
2023/12/29 02:55:16;;;;;;;6.03;3.40;;;;;;;2.79;89.81;99884.97;5113291;28;20040;-67
2023/12/29 02:57:45;;;;;;;2.85;2.50;;;;;;;2.76;90.64;99884.03;5114404;28;20488;-67
2023/12/29 03:00:14;;;;;;;2.85;1.67;;;;;;;2.80;90.74;99876.59;5114325;28;20039;-66
2023/12/29 03:02:43;;;;;;;;;;;;;;;2.79;90.49;99864.81;5114792;28;20551;-65
2023/12/29 03:05:13;;;;;;;2.40;2.20;;;;;;;2.75;90.35;99857.09;5113068;28;19965;-64
2023/12/29 03:07:41;;;;;;;1.85;1.73;;;;;;;2.79;90.49;99866.47;5095936;28;20398;-65
2023/12/29 03:10:11;;;;;;;2.03;1.90;;;;;;;2.80;90.10;99860.63;5114136;28;20055;-65
2023/12/29 03:12:41;;;;;;;3.55;2.80;;;;;;;2.79;90.83;99879.06;5112945;28;20035;-64
2023/12/29 03:15:11;;;;;;;5.95;4.55;;;;;;;2.85;90.28;99874.25;5112956;28;20047;-67
2023/12/29 03:17:40;;;;;;;2.38;2.05;;;;;;;2.89;90.53;99874.38;5095792;28;20379;-67
2023/12/29 03:20:10;;;;;;;5.07;3.15;;;;;;;2.85;90.24;99864.16;5116008;28;20431;-65
2023/12/29 03:22:39;;;;;;;2.17;1.85;;;;;;;2.87;90.45;99867.59;5118683;27;20040;-67
2023/12/29 03:25:08;;;;;;;3.35;3.05;;;;;;;2.86;90.99;99866.72;5116803;28;20054;-66
2023/12/29 03:27:38;;;;;;;1.02;1.00;;;;;;;2.90;91.09;99865.16;5117232;28;20489;-67
2023/12/29 03:30:09;;;;;;;2.33;2.13;;;;;;;2.96;90.34;99867.88;5116933;28;20512;-65
2023/12/29 03:32:38;;;;;;;2.58;2.38;;;;;;;2.97;91.07;99854.47;5118152;28;20048;-66
2023/12/29 03:35:07;;;;;;;4.40;4.00;;;;;;;2.99;91.04;99846.16;5117836;28;20089;-67
2023/12/29 03:37:36;;;;;;;4.70;4.20;;;;;;;3.00;90.87;99850.38;5117855;28;20048;-67
2023/12/29 03:40:06;;;;;;;2.70;2.50;;;;;;;2.62;90.75;99788.66;5117815;28;20398;-65
2023/12/29 03:42:35;;;;;;;1.45;1.35;;;;;;;3.01;90.83;99843.66;5118104;28;20039;-66
2023/12/29 03:45:05;;;;;;;3.03;2.78;;;;;;;3.04;91.03;99846.28;5116834;28;20045;-67
2023/12/29 03:47:35;;;;;;;2.15;2.00;;;;;;;3.00;91.16;99844.50;5116621;28;20496;-67
2023/12/29 03:50:06;;;;;;;2.03;1.80;;;;;;;2.93;91.34;99832.50;5118246;28;20470;-67
2023/12/29 03:52:35;;;;;;;8.20;3.63;;;;;;;2.92;91.36;99835.81;5117834;27;20122;-65
2023/12/29 03:55:05;;;;;;;4.60;3.30;;;;;;;2.90;91.27;99827.38;5116274;28;20055;-64
2023/12/29 03:57:35;;;;;;;3.30;2.60;;;;;;;2.92;90.91;99843.38;5117868;28;20143;-64
2023/12/29 04:00:06;;;;;;;3.35;3.10;;;;;;;2.90;91.01;99853.44;5116568;28;20088;-66
2023/12/29 04:02:41;;;;;;;3.50;2.72;;;;;;;2.87;91.27;99834.81;5117156;28;20453;-66
2023/12/29 04:05:13;;;;;;;2.83;2.63;;;;;;;2.94;91.28;99839.25;5117706;28;20073;-66
2023/12/29 04:07:42;;;;;;;5.07;4.22;;;;;;;2.96;91.42;99838.47;5117316;28;20040;-66
2023/12/29 04:10:10;;;;;;;2.65;2.47;;;;;;;2.96;90.51;99837.63;5099215;28;20043;-67
2023/12/29 04:12:39;;;;;;;2.72;2.53;;;;;;;2.93;90.57;99838.38;5117376;28;20043;-66
2023/12/29 04:15:09;;;;;;;1.33;1.23;;;;;;;2.94;91.27;99844.28;5117288;28;20504;-65
2023/12/29 04:17:38;;;;;;;8.90;4.85;;;;;;;2.96;91.01;99837.63;5116204;28;20048;-65
2023/12/29 04:20:09;;;;;;;2.47;2.08;;;;;;;2.98;90.92;99841.03;5117336;28;20186;-64
2023/12/29 04:22:38;;;;;;;2.97;2.72;;;;;;;3.03;90.93;99850.47;5116981;28;20047;-67
2023/12/29 04:25:08;;;;;;;3.17;2.97;;;;;;;3.03;90.76;99830.31;5116000;28;20126;-66
2023/12/29 04:27:37;;;;;;;2.67;2.47;;;;;;;3.10;91.01;99836.38;5117142;28;20044;-66
2023/12/29 04:30:07;;;;;;;5.15;2.33;;;;;;;3.11;91.53;99830.56;5117117;28;20035;-66
2023/12/29 04:32:36;;;;;;;3.30;3.05;;;;;;;3.14;91.11;99833.19;5116125;28;20443;-65
2023/12/29 04:35:06;;;;;;;3.90;3.50;;;;;;;3.18;91.48;99842.53;5116703;28;20044;-66
2023/12/29 04:37:37;;;;;;;3.40;2.58;;;;;;;3.17;91.58;99858.47;5115922;28;20446;-66
2023/12/29 04:40:07;;;;;;;4.00;3.55;;;;;;;3.19;91.14;99846.78;5116995;28;20048;-66
2023/12/29 04:42:36;;;;;;;3.08;2.85;;;;;;;3.14;91.35;99833.19;5116896;28;20043;-65
2023/12/29 04:45:06;;;;;;;8.35;3.80;;;;;;;3.17;91.64;99828.19;5116499;28;20040;-64
2023/12/29 04:47:35;;;;;;;2.58;2.38;;;;;;;3.17;91.96;99823.16;5116773;28;20472;-65
2023/12/29 04:50:05;;;;;;;58.65;22.08;;;;;;;3.21;91.48;99830.91;5116734;28;20036;-66
2023/12/29 04:52:37;;;;;;;2.95;2.67;;;;;;;3.19;91.56;99821.56;5116440;28;20069;-65
2023/12/29 04:55:06;;;;;;;2.53;2.30;;;;;;;3.17;92.32;99808.03;5116292;28;20039;-65
2023/12/29 04:57:35;;;;;;;6.60;5.95;;;;;;;3.16;92.00;99811.38;5116360;28;20461;-65
2023/12/29 05:00:05;;;;;;;3.83;2.80;;;;;;;3.09;91.51;99824.59;5116831;28;20084;-65
2023/12/29 05:02:34;;;;;;;3.92;3.13;;;;;;;3.08;92.27;99832.97;5116088;28;20047;-66
2023/12/29 05:05:03;;;;;;;2.77;2.53;;;;;;;3.04;91.71;99837.06;5116485;28;20440;-66
2023/12/29 05:07:32;;;;;;;2.85;2.58;;;;;;;3.01;91.58;99833.59;5116706;28;20082;-65
2023/12/29 05:10:03;;;;;;;5.70;4.20;;;;;;;2.96;91.78;99827.53;5098312;28;20228;-66
2023/12/29 05:12:32;;;;;;;4.95;3.72;;;;;;;2.94;91.68;99830.03;5116042;28;20617;-64
2023/12/29 05:15:00;;;;;;;4.00;3.57;;;;;;;2.94;91.06;99840.09;5116167;28;20050;-66
2023/12/29 05:17:30;;;;;;;2.63;2.42;;;;;;;2.95;92.10;99840.97;5116042;28;20050;-67
2023/12/29 05:19:59;;;;;;;5.67;4.93;;;;;;;2.98;91.30;99843.56;5116210;28;20039;-64
2023/12/29 05:22:28;;;;;;;8.85;4.88;;;;;;;2.99;91.97;99850.34;5116154;28;20267;-65
2023/12/29 05:24:59;;;;;;;2.20;1.80;;;;;;;2.93;91.02;99852.66;5115996;28;20065;-65
2023/12/29 05:27:30;;;;;;;2.83;2.58;;;;;;;2.87;91.53;99847.41;5116059;28;20063;-66
2023/12/29 05:29:59;;;;;;;4.60;3.75;;;;;;;2.90;91.88;99858.47;5115779;28;20053;-65
2023/12/29 05:32:28;;;;;;;3.20;2.90;;;;;;;2.92;91.61;99853.47;5116263;28;20123;-65
2023/12/29 05:34:57;;;;;;;2.65;2.45;;;;;;;2.91;92.11;99855.13;5115804;28;20323;-66
2023/12/29 05:37:26;;;;;;;8.50;3.28;;;;;;;2.95;92.05;99877.09;5115860;28;20096;-65
2023/12/29 05:39:54;;;;;;;5.53;2.00;;;;;;;2.93;92.09;99873.66;5116088;28;20036;-65
2023/12/29 05:42:23;;;;;;;3.13;2.27;;;;;;;2.92;91.50;99861.03;5115298;28;20268;-65
2023/12/29 05:44:53;;;;;;;1.93;1.83;;;;;;;2.98;91.21;99866.25;5115158;28;20284;-66
2023/12/29 05:47:22;;;;;;;1.38;1.20;;;;;;;3.00;91.86;99870.53;5114545;28;20052;-66
2023/12/29 05:49:51;;;;;;;1.63;1.53;;;;;;;3.03;92.24;99879.84;5115579;28;20040;-66
2023/12/29 05:52:20;;;;;;;3.15;2.70;;;;;;;3.05;91.35;99875.72;5115505;28;20272;-65
2023/12/29 05:54:49;;;;;;;3.10;2.80;;;;;;;3.05;92.37;99879.09;5114784;28;20036;-65
2023/12/29 05:57:18;;;;;;;4.07;3.42;;;;;;;2.99;92.23;99862.94;5115352;28;20044;-66
2023/12/29 05:59:47;;;;;;;2.95;2.17;;;;;;;3.00;91.79;99865.50;5115432;27;20042;-65
2023/12/29 06:02:18;;;;;;;2.50;2.33;;;;;;;3.06;92.02;99869.88;5115080;28;20036;-67
2023/12/29 06:04:46;;;;;;;2.30;1.77;;;;;;;3.07;92.08;99876.66;5115603;28;20416;-66
2023/12/29 06:07:16;;;;;;;13.23;5.00;;;;;;;3.08;92.24;99869.13;5114878;28;20075;-65
2023/12/29 06:09:44;;;;;;;6.40;3.00;;;;;;;3.09;91.78;99870.00;5115178;28;20036;-66
2023/12/29 06:12:15;;;;;;;5.70;3.08;;;;;;;3.07;92.50;99882.53;5115140;28;20070;-65
2023/12/29 06:14:44;;;;;;;6.80;4.07;;;;;;;3.08;92.71;99876.69;5114992;28;20044;-65
2023/12/29 06:17:13;;;;;;;5.75;3.40;;;;;;;3.05;92.66;99873.19;5115051;28;20116;-65
2023/12/29 06:19:43;;;;;;;6.60;5.05;;;;;;;3.03;92.34;99874.81;5114967;28;20501;-66
2023/12/29 06:22:14;;;;;;;4.45;4.05;;;;;;;3.02;91.88;99873.13;5114965;28;20053;-66
2023/12/29 06:24:43;;;;;;;4.97;3.42;;;;;;;3.00;92.21;99865.50;5114712;27;20035;-65
2023/12/29 06:27:13;;;;;;;4.38;3.55;;;;;;;2.98;92.59;99881.38;5114792;28;20050;-66
2023/12/29 06:29:42;;;;;;;7.22;5.82;;;;;;;2.96;92.52;99870.38;5115405;28;20047;-65
2023/12/29 06:32:11;;;;;;;2.38;2.15;;;;;;;2.99;92.06;99871.38;5114423;28;20043;-65
2023/12/29 06:34:41;;;;;;;3.70;3.40;;;;;;;2.92;92.19;99861.03;5114618;28;20047;-65
2023/12/29 06:37:12;;;;;;;4.13;3.08;;;;;;;2.81;92.65;99862.34;5114544;28;20279;-65
2023/12/29 06:39:41;;;;;;;5.55;4.60;;;;;;;2.80;92.75;99871.56;5114591;28;20553;-65
2023/12/29 06:42:09;;;;;;;4.03;3.70;;;;;;;2.85;92.74;99874.25;5114308;28;20043;-66
2023/12/29 06:44:38;;;;;;;3.25;2.95;;;;;;;2.83;92.33;99880.91;5114374;28;20038;-66
2023/12/29 06:47:07;;;;;;;4.90;4.33;;;;;;;2.83;92.41;99880.91;5112679;28;20078;-66
2023/12/29 06:49:36;;;;;;;4.97;4.47;;;;;;;2.70;92.17;99862.84;5114298;28;20096;-66
2023/12/29 06:52:05;;;;;;;4.50;4.07;;;;;;;2.69;92.29;99868.69;5114384;28;20150;-66
2023/12/29 06:54:36;;;;;;;4.20;3.80;;;;;;;2.67;92.55;99855.19;5113781;28;20447;-66
2023/12/29 06:57:05;;;;;;;5.10;4.65;;;;;;;2.66;92.76;99842.56;5114093;28;20040;-66
2023/12/29 06:59:34;;;;;;;4.97;4.07;;;;;;;2.73;92.21;99854.53;5114009;28;20490;-65
2023/12/29 07:02:04;;;;;;;8.50;4.30;;;;;;;2.67;92.69;99870.31;5114283;27;20139;-66
2023/12/29 07:04:34;;;;;;;3.75;3.45;;;;;;;2.61;91.69;99882.72;5113899;28;20325;-66
2023/12/29 07:07:03;;;;;;;3.42;2.97;;;;;;;2.64;92.41;99899.56;5114258;28;20035;-66
2023/12/29 07:09:32;;;;;;;4.68;4.15;;;;;;;2.72;91.99;99906.59;5114361;28;20040;-65
2023/12/29 07:12:02;;;;;;;4.45;3.83;;;;;;;2.85;92.05;99914.56;5112858;28;20044;-66
2023/12/29 07:14:31;;;;;;;6.80;6.13;;;;;;;3.01;92.09;99904.16;5113970;28;20553;-65
2023/12/29 07:17:00;;;;;;;5.60;5.07;;;;;;;3.06;92.02;99905.19;5113949;28;20044;-66
2023/12/29 07:19:36;;;;;;;2.37;2.17;;;;;;;3.11;92.56;99893.56;5113874;28;20039;-65
2023/12/29 07:22:07;;;;;;;4.63;4.20;;;;;;;3.22;92.38;99893.09;5114206;28;20067;-65
2023/12/29 07:24:37;;;;;;;2.55;2.38;;;;;;;3.42;92.06;99893.75;5114161;28;20138;-66
2023/12/29 07:27:08;;;;;;;9.93;3.30;;;;;;;3.53;92.03;99892.38;5113797;28;20402;-66
2023/12/29 07:29:37;;;;;;;2.53;2.33;;;;;;;3.61;91.73;99902.72;5113768;28;20138;-66
2023/12/29 07:32:07;;;;;;;3.47;2.85;;;;;;;3.55;91.90;99890.75;5114049;28;20038;-65
2023/12/29 07:34:35;;;;;;;1.88;1.77;;;;;;;3.56;91.25;99897.53;5113759;28;20028;-65
2023/12/29 07:37:05;;;;;;;2.72;2.45;;;;;;;3.78;91.78;99887.28;5113725;28;20040;-66
2023/12/29 07:39:33;;;;;;;3.33;3.03;;;;;;;3.79;91.10;99893.19;5114020;28;20039;-66
2023/12/29 07:42:03;;;;;;;5.40;3.70;;;;;;;3.73;91.01;99876.19;5113679;28;20052;-66
2023/12/29 07:44:35;;;;;;;2.42;1.70;;;;;;;3.76;90.70;99863.66;5114002;28;20039;-66
2023/12/29 07:47:04;;;;;;;7.22;6.00;;;;;;;3.78;90.76;99869.59;5112754;28;20039;-65
2023/12/29 07:49:33;;;;;;;5.28;4.78;;;;;;;3.83;90.84;99865.56;5113609;28;20435;-65
2023/12/29 07:52:02;;;;;;;4.82;4.43;;;;;;;3.95;90.83;99882.72;5114445;28;20489;-65
2023/12/29 07:54:31;;;;;;;1.95;1.80;;;;;;;3.98;90.62;99883.63;5113809;28;20139;-66
2023/12/29 07:57:00;;;;;;;14.93;4.00;;;;;;;4.07;90.70;99868.78;5113579;28;20036;-65
2023/12/29 07:59:28;;;;;;;5.47;3.73;;;;;;;4.13;90.45;99874.81;5113704;28;20046;-66
2023/12/29 08:01:59;;;;;;;12.73;3.35;;;;;;;4.19;90.62;99880.00;5112629;28;20272;-66
2023/12/29 08:04:27;;;;;;;6.10;4.10;;;;;;;4.26;90.16;99894.53;5113281;28;20052;-66
2023/12/29 08:06:56;;;;;;;1.97;1.67;;;;;;;4.31;90.33;99890.47;5114714;28;20115;-66
2023/12/29 08:09:26;;;;;;;5.83;5.20;;;;;;;4.32;90.39;99889.66;5104375;28;20784;-66
2023/12/29 08:11:55;;;;;;;4.97;2.80;;;;;;;4.37;90.22;99880.50;5096530;28;20058;-66
2023/12/29 08:14:24;;;;;;;5.70;5.07;;;;;;;4.53;90.35;99887.69;5101758;28;20047;-67
2023/12/29 08:16:53;;;;;;;3.50;3.20;;;;;;;4.71;90.50;99888.16;5099097;28;20052;-65
2023/12/29 08:19:23;;;;;;;10.60;4.38;;;;;;;4.90;90.24;99890.34;5096961;28;20444;-66
2023/12/29 08:21:52;;;;;;;7.03;4.70;;;;;;;5.04;89.93;99883.94;5096546;28;20044;-67
2023/12/29 08:24:21;;;;;;;3.30;3.05;;;;;;;5.19;89.79;99889.38;5096506;28;20108;-66
2023/12/29 08:26:50;;;;;;;4.07;3.77;;;;;;;5.35;89.78;99881.31;5096957;28;20036;-66
2023/12/29 08:29:19;;;;;;;2.97;2.73;;;;;;;5.47;89.39;99887.50;5096746;28;20036;-66
2023/12/29 08:31:48;;;;;;;4.32;3.83;;;;;;;5.58;89.52;99889.47;5096695;28;20367;-66
2023/12/29 08:34:17;;;;;;;3.27;2.90;;;;;;;5.64;89.15;99883.69;5096740;28;20039;-65
2023/12/29 08:36:50;;;;;;;3.78;3.47;;;;;;;5.60;88.59;99894.53;5096699;28;20478;-66
2023/12/29 08:39:18;;;;;;;1.50;1.40;;;;;;;5.66;88.50;99902.28;5096668;28;20075;-65
2023/12/29 08:41:49;;;;;;;14.43;5.43;;;;;;;5.81;88.08;99902.59;5096428;28;20058;-65
2023/12/29 08:44:18;;;;;;;4.57;3.33;;;;;;;5.81;88.25;99897.53;5096191;28;20265;-66
2023/12/29 08:46:47;;;;;;;16.00;5.27;;;;;;;5.86;87.73;99896.00;5095385;28;20502;-65
2023/12/29 08:49:16;;;;;;;2.27;1.53;;;;;;;5.94;87.36;99907.16;5096701;28;20284;-66
2023/12/29 08:51:44;;;;;;;5.33;4.90;;;;;;;5.91;86.94;99905.41;5096159;28;20085;-65
2023/12/29 08:54:15;;;;;;;4.30;3.93;;;;;;;5.96;87.00;99905.50;5096428;28;20036;-65
2023/12/29 08:56:44;;;;;;;3.72;2.33;;;;;;;5.87;85.98;99902.78;5095776;28;20332;-65
2023/12/29 08:59:13;;;;;;;4.53;3.75;;;;;;;5.67;85.85;99889.66;5096163;28;20109;-65
2023/12/29 09:01:42;;;;;;;11.03;3.73;;;;;;;5.61;85.89;99894.59;5096097;28;20044;-66
2023/12/29 09:04:10;;;;;;;3.17;2.80;;;;;;;5.73;86.13;99899.06;5094152;28;20052;-65
2023/12/29 09:06:40;;;;;;;5.23;3.43;;;;;;;5.84;86.03;99888.38;5094826;28;20476;-66
2023/12/29 09:09:12;;;;;;;3.20;2.90;;;;;;;5.97;86.25;99870.06;5096049;28;20047;-66
2023/12/29 09:11:43;;;;;;;4.53;4.10;;;;;;;6.23;85.98;99877.34;5093937;28;20076;-66
2023/12/29 09:14:12;;;;;;;5.63;4.85;;;;;;;6.35;85.56;99883.50;5094442;28;20151;-66
2023/12/29 09:16:42;;;;;;;3.03;2.77;;;;;;;6.50;85.99;99896.44;5093982;28;20132;-66
2023/12/29 09:19:13;;;;;;;4.47;3.97;;;;;;;6.59;85.21;99894.13;5095831;28;20071;-66
2023/12/29 09:21:58;;;;;;;3.78;3.38;;;;;;;6.72;84.76;99888.41;5095836;28;20486;-65
2023/12/29 09:24:27;;;;;;;4.88;2.67;;;;;;;6.86;85.03;99897.97;5095746;28;20081;-66
2023/12/29 09:26:58;;;;;;;2.70;2.50;;;;;;;6.90;84.07;99884.50;5095323;28;20074;-66
2023/12/29 09:29:26;;;;;;;4.93;3.65;;;;;;;6.97;84.63;99896.47;5095749;28;20342;-66
2023/12/29 09:31:55;;;;;;;5.40;4.93;;;;;;;6.89;83.93;99890.38;5095318;28;20077;-65
2023/12/29 09:34:24;;;;;;;6.90;3.87;;;;;;;6.81;83.72;99879.28;5095464;28;20111;-66
2023/12/29 09:36:53;;;;;;;4.43;3.92;;;;;;;6.81;84.40;99874.19;5095376;28;20048;-65
2023/12/29 09:39:22;;;;;;;6.78;3.58;;;;;;;6.92;84.38;99882.84;5094216;28;20040;-66
2023/12/29 09:41:53;;;;;;;3.55;3.25;;;;;;;6.88;84.30;99871.81;5095442;28;20028;-66
2023/12/29 09:44:24;;;;;;;6.20;5.57;;;;;;;6.96;84.78;99865.16;5095283;28;20091;-65
2023/12/29 09:46:56;;;;;;;7.28;4.63;;;;;;;7.09;84.61;99862.00;5094894;28;20375;-66
2023/12/29 09:49:26;;;;;;;3.28;3.05;;;;;;;7.12;84.47;99866.28;5095222;28;20072;-65
2023/12/29 09:51:58;;;;;;;4.30;3.90;;;;;;;7.06;84.61;99866.16;5095321;28;20044;-65
2023/12/29 09:54:27;;;;;;;3.47;3.17;;;;;;;6.97;84.51;99869.41;5095513;28;20123;-65
2023/12/29 09:56:56;;;;;;;2.60;2.10;;;;;;;6.99;84.29;99859.28;5093402;28;20071;-66
2023/12/29 09:59:27;;;;;;;2.60;2.40;;;;;;;7.04;84.50;99857.66;5094622;28;20050;-66
2023/12/29 10:01:57;;;;;;;5.15;4.53;;;;;;;7.06;84.66;99863.63;5095202;28;20044;-65
2023/12/29 10:04:26;;;;;;;2.75;1.98;;;;;;;7.13;84.36;99867.97;5094275;28;20393;-65
2023/12/29 10:06:58;;;;;;;2.92;2.70;;;;;;;7.11;84.99;99860.34;5094614;28;20040;-65
2023/12/29 10:09:28;;;;;;;1.90;1.67;;;;;;;7.14;84.67;99850.25;5093253;28;20457;-65
2023/12/29 10:11:58;;;;;;;7.47;3.22;;;;;;;7.15;84.59;99872.22;5094758;28;20040;-66
2023/12/29 10:14:37;;;;;;;2.03;1.80;;;;;;;7.07;84.48;99867.88;5094821;28;20486;-65
2023/12/29 10:17:26;;;;;;;2.75;2.50;;;;;;;7.03;84.24;99858.53;5093211;28;20521;-66
2023/12/29 10:20:07;;;;;;;2.72;2.08;;;;;;;6.98;84.73;99852.50;5094360;28;20036;-65
2023/12/29 10:22:44;;;;;;;5.43;3.40;;;;;;;6.82;84.48;99840.38;5094574;28;20044;-65
2023/12/29 10:25:14;;;;;;;0.82;0.82;;;;;;;6.89;85.00;99847.25;5094241;28;20055;-65
2023/12/29 10:27:43;;;;;;;5.35;2.58;;;;;;;6.83;85.64;99857.31;5093305;28;20115;-65
2023/12/29 10:30:14;;;;;;;5.40;4.15;;;;;;;6.83;85.12;99858.19;5093812;28;20071;-66
2023/12/29 10:32:56;;;;;;;3.50;2.38;;;;;;;6.78;85.81;99848.78;5094509;28;20131;-65
2023/12/29 10:35:25;;;;;;;2.88;2.58;;;;;;;6.66;85.66;99835.06;5094026;28;20058;-65
2023/12/29 10:38:09;;;;;;;3.20;2.05;;;;;;;6.72;85.37;99849.53;5094374;28;20129;-66
2023/12/29 10:40:39;;;;;;;1.80;1.70;;;;;;;6.81;85.88;99848.84;5094194;28;20067;-66
2023/12/29 10:43:09;;;;;;;2.33;2.13;;;;;;;6.85;86.00;99837.91;5093886;28;20460;-65
2023/12/29 10:45:40;;;;;;;4.13;3.45;;;;;;;6.94;86.09;99831.28;5093904;28;20052;-66
2023/12/29 10:48:09;;;;;;;2.15;1.95;;;;;;;7.01;86.08;99817.88;5094158;28;20123;-66
2023/12/29 10:50:45;;;;;;;3.55;2.88;;;;;;;7.09;85.85;99825.63;5094653;28;20062;-66
2023/12/29 10:53:16;;;;;;;3.53;1.92;;;;;;;7.11;86.32;99816.34;5093662;28;20048;-66
2023/12/29 10:55:46;;;;;;;10.70;3.42;;;;;;;7.06;86.64;99813.72;5094214;28;20478;-66
2023/12/29 10:58:19;;;;;;;4.23;2.93;;;;;;;7.07;86.56;99817.13;5093670;28;20039;-66
2023/12/29 11:00:49;;;;;;;3.00;2.60;;;;;;;7.07;86.33;99812.06;5094018;28;20269;-66
2023/12/29 11:03:18;;;;;;;2.38;1.85;;;;;;;7.04;86.00;99812.84;5093702;28;20051;-66
2023/12/29 11:05:47;;;;;;;2.20;2.03;;;;;;;6.98;85.95;99805.13;5094019;28;20050;-66
2023/12/29 11:08:17;;;;;;;35.25;3.67;;;;;;;6.97;86.24;99800.06;5093898;28;20532;-66
2023/12/29 11:10:48;;;;;;;4.90;2.22;;;;;;;6.99;86.30;99803.47;5093738;28;20105;-66
2023/12/29 11:13:18;;;;;;;1.75;1.60;;;;;;;6.97;85.77;99789.91;5092526;28;20142;-66
2023/12/29 11:15:52;;;;;;;5.28;3.58;;;;;;;6.96;86.26;99803.44;5093837;28;20047;-66
2023/12/29 11:18:21;;;;;;;2.78;2.45;;;;;;;6.94;86.20;99790.69;5093671;28;20085;-66
2023/12/29 11:20:50;;;;;;;3.30;2.83;;;;;;;7.03;86.20;99788.31;5093823;28;20127;-66
2023/12/29 11:23:20;;;;;;;5.05;4.57;;;;;;;7.05;86.09;99795.97;5093448;28;20102;-67
2023/12/29 11:25:49;;;;;;;2.30;2.10;;;;;;;7.07;86.21;99791.75;5093745;28;20047;-66
2023/12/29 11:28:20;;;;;;;8.18;3.45;;;;;;;7.14;86.59;99783.41;5093680;28;20444;-66
2023/12/29 11:30:51;;;;;;;2.55;2.35;;;;;;;7.20;85.85;99779.25;5092650;28;20082;-66
2023/12/29 11:33:27;;;;;;;5.32;4.82;;;;;;;7.23;86.38;99769.16;5093374;28;20051;-66
2023/12/29 11:36:01;;;;;;;1.35;1.25;;;;;;;7.26;86.59;99768.34;5092557;28;20048;-66
2023/12/29 11:38:44;;;;;;;2.63;2.42;;;;;;;7.22;85.90;99766.59;5092151;28;20041;-66
2023/12/29 11:41:20;;;;;;;4.82;3.28;;;;;;;7.19;85.84;99761.47;5095566;28;20051;-66
2023/12/29 11:43:58;;;;;;;4.07;3.17;;;;;;;7.20;85.55;99755.56;5097807;28;20040;-66
2023/12/29 11:46:42;;;;;;;2.40;2.08;;;;;;;7.26;85.43;99760.72;5097571;28;20036;-65
2023/12/29 11:49:12;;;;;;;3.58;2.55;;;;;;;7.31;85.87;99767.59;5097603;28;20060;-66
2023/12/29 11:51:43;;;;;;;2.75;2.33;;;;;;;7.35;86.01;99768.47;5097447;28;20066;-66
2023/12/29 11:54:23;;;;;;;2.35;2.15;;;;;;;7.35;86.14;99764.25;5097741;28;20075;-66
2023/12/29 11:56:53;;;;;;;4.13;3.72;;;;;;;7.42;85.25;99765.16;5096258;28;20087;-66